Aeroporto :
LOGIN :

Iscrizione | Disclaimer

   EN    FR    IT 

 










Sommario :    VFR   VFR Marginale   IFR   IFR Intensivo   IFR Molto Intensivo
Visibilità : 
Base nubi : 
>= 8 km
>= 3000ft
5 / 8 km
1000 / 3000 ft
1500m / 5 km
500 / 1000 ft
800 / 1500m
200 / 500 ft
< 800m
< 200 ft
Simboli :   Temporali  Nebbia  Neve Forte  Precipitazioni Forti  Vento > 20 kt
SIGMETs :   Varie  Temporali  Ghiacco  Turbolenza  Onda orograficha  Ceneri Vulcaniche






- Altitudine del aeroporto : 622 ft
- Codice IATA : BRS


EGGD - Bristol Int.

ULTIMO METAR :
  • 250550Z AUTO VRB01KT 9999 NCD 10/09 Q1035

METARs OBSOLETI :
  • 250520Z AUTO VRB01KT 9999 NCD 09/09 Q1035
  • 250450Z AUTO VRB01KT 8000 NCD 09/08 Q1035
  • 250420Z AUTO 00000KT 9999 R27/0200 NCD 07/07 Q1034
  • 250350Z AUTO VRB01KT 4000 BR NCD 07/07 Q1034
  • 250320Z AUTO VRB02KT 6000 NCD 08/08 Q1034

TAF TAF EGGD
Valido dal 25 a 06 ore il 26 a 06 ore UTC


250501Z 2506/2606 VRB03KT 8000 FEW045
BECMG 2506/2509 9999
PROB30
TEMPO 2506/2507 0300 FG BKN000
BECMG 2512/2515 27010KT
BECMG 2520/2523 21006KT
ATIS : +44 1275 473 666



MetMap, La meteo Aeronautica in un colpo d'occhio ! - Copyright ORBIFLY Dicembre 2007 - Disclaimer

ORBIFLY MET'MAP TEAM :

Programmazione e sviluppo : Alexandra Zaïnal
Concezione : Baudouin d'Aumeries
Aiuto per la programmazione : Marc-Olivier Méhu
Supporto tecnico e logistico : Manuel Goepfert
Aiuto per la traduzione : Arnaldo La Scala

Contatto : metmap@orbifly.com




FONTI E CREDITI :

   NOAA